Time;durP1;ratioP1;P1;durP2;ratioP2;P2;SDS_P1;SDS_P2;PMS_P1;PMS_P2;Temp;Humidity;BMP_temperature;BMP_pressure;BME280_temperature;BME280_humidity;BME280_pressure;Samples;Min_cycle;Max_cycle;Signal;HPM_P1;HPM_P2
2021/06/09 00:00:29;;;;;;;3.30;3.10;;;;;;;17.18;79.01;101081.31;5089712;28;20192;-71
2021/06/09 00:02:55;;;;;;;4.20;3.90;;;;;;;17.14;78.52;101087.84;5090922;28;20181;-71
2021/06/09 00:05:20;;;;;;;4.27;3.97;;;;;;;17.09;79.80;101086.13;5090929;28;20216;-71
2021/06/09 00:07:46;;;;;;;5.13;4.17;;;;;;;17.03;81.18;101076.41;5090777;28;20231;-71
2021/06/09 00:10:12;;;;;;;3.97;3.73;;;;;;;17.09;80.43;101091.66;5090965;28;20210;-71
2021/06/09 00:12:37;;;;;;;3.87;3.57;;;;;;;17.15;80.04;101081.19;5090663;28;20630;-71
2021/06/09 00:15:06;;;;;;;3.50;3.20;;;;;;;17.15;79.56;101073.72;5090776;28;20212;-71
2021/06/09 00:17:32;;;;;;;3.40;3.20;;;;;;;17.19;79.21;101076.59;5090532;28;20432;-71
2021/06/09 00:19:57;;;;;;;4.50;4.10;;;;;;;17.22;79.76;101078.69;5088955;28;20181;-71
2021/06/09 00:22:23;;;;;;;3.57;3.30;;;;;;;17.21;79.20;101077.88;5090697;28;20227;-71
2021/06/09 00:24:48;;;;;;;3.33;3.13;;;;;;;17.30;78.57;101079.72;5089375;28;20201;-71
2021/06/09 00:27:14;;;;;;;3.33;3.07;;;;;;;17.34;78.13;101083.41;5090229;28;20209;-71
2021/06/09 00:29:40;;;;;;;3.00;2.80;;;;;;;17.44;76.88;101080.22;5090509;28;20613;-71
2021/06/09 00:32:05;;;;;;;3.07;2.87;;;;;;;17.47;76.70;101072.06;5090691;28;20189;-70
2021/06/09 00:34:31;;;;;;;2.63;2.43;;;;;;;17.47;76.04;101063.78;5090802;28;20617;-71
2021/06/09 00:36:56;;;;;;;2.73;2.53;;;;;;;17.42;75.92;101069.53;5090302;28;20615;-71
2021/06/09 00:39:22;;;;;;;2.17;2.00;;;;;;;17.27;75.21;101074.91;5090948;28;20193;-71
2021/06/09 00:41:47;;;;;;;3.63;2.37;;;;;;;17.16;74.53;101080.84;5090348;28;20174;-71
2021/06/09 00:44:13;;;;;;;1.93;1.83;;;;;;;17.12;73.44;101085.44;5090253;28;20213;-71
2021/06/09 00:46:42;;;;;;;1.87;1.77;;;;;;;17.02;73.83;101077.56;5090138;28;20629;-71
2021/06/09 00:49:08;;;;;;;2.30;2.20;;;;;;;16.98;74.20;101084.13;5090320;28;20176;-71
2021/06/09 00:51:35;;;;;;;2.40;2.30;;;;;;;16.76;75.20;101083.31;5090328;28;20264;-71
2021/06/09 00:54:06;;;;;;;1.93;1.83;;;;;;;16.75;75.43;101080.91;5090255;28;20281;-71
2021/06/09 00:56:34;;;;;;;2.07;1.97;;;;;;;16.86;75.38;101082.09;5090189;28;20719;-71
2021/06/09 00:59:00;;;;;;;1.97;1.87;;;;;;;16.82;75.43;101078.41;5090432;28;20227;-71
2021/06/09 01:01:28;;;;;;;1.93;1.83;;;;;;;16.76;76.57;101066.75;5090251;28;20166;-71
2021/06/09 01:03:54;;;;;;;2.03;1.93;;;;;;;16.65;77.45;101065.53;5090226;28;20177;-71
2021/06/09 01:06:20;;;;;;;2.93;2.73;;;;;;;16.60;78.04;101071.25;5089934;28;20169;-71
2021/06/09 01:08:46;;;;;;;2.67;2.30;;;;;;;16.55;78.26;101068.69;5090130;28;20608;-71
2021/06/09 01:11:32;;;;;;;2.00;1.90;;;;;;;16.66;77.39;101075.44;5090178;28;20170;-71
2021/06/09 01:13:57;;;;;;;1.83;1.73;;;;;;;16.77;76.87;101068.38;5089485;28;20288;-71
2021/06/09 01:16:24;;;;;;;1.80;1.70;;;;;;;16.85;76.02;101067.50;5083914;28;20270;-71
2021/06/09 01:18:49;;;;;;;2.20;2.10;;;;;;;16.99;75.72;101063.66;5080075;28;20294;-70
2021/06/09 01:21:15;;;;;;;2.10;1.83;;;;;;;16.96;75.85;101059.63;5086824;28;20677;-71
2021/06/09 01:23:41;;;;;;;2.20;2.00;;;;;;;17.00;75.52;101054.22;5084732;28;20182;-71
2021/06/09 01:26:08;;;;;;;2.07;1.97;;;;;;;17.03;75.19;101059.06;5087689;28;20581;-71
2021/06/09 01:28:36;;;;;;;1.87;1.77;;;;;;;17.02;75.28;101055.47;5083558;28;20624;-71
2021/06/09 01:31:02;;;;;;;2.07;1.97;;;;;;;17.00;74.95;101057.78;5090390;28;20551;-71
2021/06/09 01:33:28;;;;;;;1.90;1.80;;;;;;;16.92;75.55;101050.38;5094150;28;20200;-70
2021/06/09 01:35:54;;;;;;;2.07;1.97;;;;;;;16.87;75.71;101056.91;5093962;28;20182;-71
2021/06/09 01:38:20;;;;;;;2.03;1.93;;;;;;;16.92;75.95;101055.91;5093594;28;20185;-71
2021/06/09 01:40:46;;;;;;;2.10;1.90;;;;;;;16.92;76.15;101059.50;5093295;28;20178;-71
2021/06/09 01:43:11;;;;;;;2.43;2.23;;;;;;;16.94;76.49;101053.63;5093588;28;20582;-71
2021/06/09 01:45:38;;;;;;;2.50;2.30;;;;;;;16.93;76.62;101052.81;5093498;28;20212;-71
2021/06/09 01:48:08;;;;;;;2.20;2.10;;;;;;;16.88;76.77;101053.00;5093284;28;20514;-70
2021/06/09 01:50:35;;;;;;;2.07;1.97;;;;;;;16.92;77.03;101055.91;5093480;28;20235;-71
2021/06/09 01:53:04;;;;;;;3.10;2.80;;;;;;;16.87;77.47;101059.69;5093485;28;20173;-71
2021/06/09 01:55:32;;;;;;;2.50;2.30;;;;;;;16.80;77.83;101055.88;5093262;28;20221;-71
2021/06/09 01:57:58;;;;;;;2.63;2.43;;;;;;;16.72;78.55;101051.22;5091799;28;20178;-71
2021/06/09 02:00:45;;;;;;;2.53;2.37;;;;;;;16.47;79.26;101059.31;5093323;28;20235;-71
2021/06/09 02:03:15;;;;;;;2.80;2.60;;;;;;;16.33;80.29;101056.84;5093323;28;20178;-71
2021/06/09 02:05:41;;;;;;;2.70;2.50;;;;;;;16.19;81.40;101053.53;5092935;28;20201;-71
2021/06/09 02:08:09;;;;;;;2.50;2.30;;;;;;;16.11;82.18;101064.63;5091625;28;20174;-71
2021/06/09 02:10:36;;;;;;;3.57;3.37;;;;;;;16.03;82.92;101056.03;5093159;28;20542;-70
2021/06/09 02:13:08;;;;;;;4.93;3.30;;;;;;;16.00;83.26;101056.72;5093039;28;20174;-71
2021/06/09 02:15:34;;;;;;;3.30;3.10;;;;;;;16.00;83.06;101056.72;5092953;28;20178;-71
2021/06/09 02:18:11;;;;;;;2.30;2.10;;;;;;;15.98;82.50;101061.75;5092645;28;20177;-71
2021/06/09 02:20:48;;;;;;;2.47;2.33;;;;;;;16.13;82.11;101052.09;5093012;28;20582;-71
2021/06/09 02:23:16;;;;;;;2.37;2.10;;;;;;;16.04;81.98;101054.91;5092919;28;20170;-71
2021/06/09 02:25:46;;;;;;;2.10;2.00;;;;;;;16.24;82.50;101047.81;5092740;28;20201;-71
2021/06/09 02:28:12;;;;;;;2.50;2.30;;;;;;;16.16;82.62;101053.38;5092567;28;20204;-71
2021/06/09 02:30:40;;;;;;;2.30;2.10;;;;;;;16.24;82.81;101053.34;5092721;28;20451;-71
2021/06/09 02:33:05;;;;;;;3.10;2.57;;;;;;;16.51;82.31;101054.78;5091452;28;20705;-71
2021/06/09 02:35:36;;;;;;;2.37;2.23;;;;;;;16.66;81.76;101045.09;5092631;28;20257;-71
2021/06/09 02:38:02;;;;;;;2.80;2.60;;;;;;;16.73;81.52;101050.06;5092573;28;20173;-71
2021/06/09 02:40:28;;;;;;;3.00;2.80;;;;;;;16.80;81.45;101039.31;5092589;28;20185;-71
2021/06/09 02:42:53;;;;;;;2.47;2.37;;;;;;;16.84;80.86;101045.75;5091885;28;20182;-71
2021/06/09 02:45:20;;;;;;;2.50;2.40;;;;;;;16.87;80.87;101050.59;5092321;28;20211;-71
2021/06/09 02:47:49;;;;;;;2.77;2.30;;;;;;;16.59;81.75;101053.06;5092133;28;20204;-71
2021/06/09 02:50:18;;;;;;;2.87;2.67;;;;;;;16.52;82.71;101059.16;5092321;28;20178;-71
2021/06/09 02:53:14;;;;;;;2.47;2.27;;;;;;;16.61;83.11;101057.09;5092319;28;20178;-71
2021/06/09 02:55:58;;;;;;;2.70;2.17;;;;;;;16.75;81.73;101056.06;5092077;28;20649;-72
2021/06/09 02:58:34;;;;;;;2.30;2.20;;;;;;;16.75;81.73;101048.59;5092282;28;20182;-71
2021/06/09 03:01:14;;;;;;;2.70;2.50;;;;;;;16.76;81.78;101050.19;5092184;28;20173;-71
2021/06/09 03:03:47;;;;;;;2.77;2.57;;;;;;;16.81;80.72;101052.78;5092052;28;20664;-71
2021/06/09 03:06:40;;;;;;;2.17;2.07;;;;;;;16.92;80.56;101053.13;5091841;28;20201;-71
2021/06/09 03:09:16;;;;;;;2.37;2.20;;;;;;;16.83;80.56;101052.44;5063650;28;20537;-71
2021/06/09 03:11:55;;;;;;;2.40;2.30;;;;;;;16.92;80.91;101053.97;5091996;28;20637;-71
2021/06/09 03:17:08;;;;;;;2.60;2.40;;;;;;;16.99;81.00;101050.66;5092044;28;20162;-71
2021/06/09 03:19:51;;;;;;;2.30;2.10;;;;;;;16.90;81.69;101045.19;5091803;28;20182;-71
2021/06/09 03:22:30;;;;;;;2.50;2.30;;;;;;;16.83;81.44;101050.47;5091775;28;20177;-71
2021/06/09 03:24:57;;;;;;;2.60;2.40;;;;;;;16.66;81.32;101054.16;5090257;28;20223;-71
2021/06/09 03:27:31;;;;;;;2.10;2.00;;;;;;;16.14;82.17;101052.91;5091446;28;20173;-71
2021/06/09 03:30:02;;;;;;;1.80;1.70;;;;;;;16.18;82.90;101051.91;5091693;28;20169;-71
2021/06/09 03:32:42;;;;;;;2.77;2.57;;;;;;;16.46;83.18;101054.16;5090295;28;20206;-71
2021/06/09 03:35:13;;;;;;;2.53;2.33;;;;;;;16.43;83.59;101057.59;5091538;28;20547;-71
2021/06/09 03:37:42;;;;;;;2.50;2.40;;;;;;;16.62;82.71;101049.63;5091249;28;20180;-71
2021/06/09 03:40:14;;;;;;;2.47;2.27;;;;;;;16.66;82.94;101042.31;5091313;28;20617;-71
2021/06/09 03:42:46;;;;;;;2.57;2.40;;;;;;;16.75;82.48;101045.03;5091139;28;20166;-71
2021/06/09 03:45:13;;;;;;;3.83;2.10;;;;;;;16.77;82.51;101051.00;5091208;28;20197;-71
2021/06/09 03:47:40;;;;;;;3.50;1.90;;;;;;;16.77;81.51;101037.19;5091019;28;20178;-71
2021/06/09 03:50:06;;;;;;;2.00;1.90;;;;;;;16.76;81.28;101038.34;5091539;28;20162;-71
2021/06/09 03:52:33;;;;;;;2.27;2.17;;;;;;;16.71;81.00;101041.34;5091150;28;20170;-71
2021/06/09 03:54:59;;;;;;;2.57;2.47;;;;;;;16.57;81.45;101028.59;5090393;28;20193;-71
2021/06/09 03:57:26;;;;;;;2.07;1.97;;;;;;;16.56;81.05;101032.50;5090772;28;20195;-71
2021/06/09 03:59:55;;;;;;;1.93;1.83;;;;;;;16.58;80.85;101034.91;5091459;28;20174;-71
2021/06/09 04:02:23;;;;;;;2.43;2.23;;;;;;;16.47;80.98;101036.47;5091254;28;20656;-71
2021/06/09 04:04:54;;;;;;;2.23;2.03;;;;;;;16.30;81.99;101043.72;5091095;28;20240;-71
2021/06/09 04:07:30;;;;;;;2.40;2.10;;;;;;;16.21;82.67;101031.16;5090962;28;20709;-71
2021/06/09 04:10:02;;;;;;;2.30;2.10;;;;;;;16.38;82.06;101038.50;5091351;28;20256;-71
2021/06/09 04:12:29;;;;;;;2.10;2.00;;;;;;;16.36;81.84;101022.28;5091027;28;20170;-71
2021/06/09 04:14:58;;;;;;;2.23;2.03;;;;;;;16.39;81.39;101029.06;5091536;28;20584;-71
2021/06/09 04:17:26;;;;;;;2.07;1.97;;;;;;;16.41;81.53;101032.28;5090603;28;20638;-71
2021/06/09 04:19:54;;;;;;;2.23;2.07;;;;;;;16.01;82.15;101030.78;5090787;28;20169;-70
2021/06/09 04:22:21;;;;;;;2.33;2.13;;;;;;;15.81;83.84;101042.56;5090696;28;20207;-71
2021/06/09 04:24:47;;;;;;;2.33;2.23;;;;;;;15.78;84.45;101043.25;5089288;28;20206;-71
2021/06/09 04:27:21;;;;;;;2.37;2.17;;;;;;;15.71;85.33;101049.25;5090454;28;20869;-71
2021/06/09 04:29:49;;;;;;;2.47;2.27;;;;;;;15.87;85.44;101037.66;5090745;28;20172;-71
2021/06/09 04:32:14;;;;;;;2.40;2.20;;;;;;;15.95;85.34;101034.88;5090719;28;20174;-71
2021/06/09 04:34:46;;;;;;;2.83;2.63;;;;;;;16.02;85.24;101039.84;5090451;28;20587;-71
2021/06/09 04:37:13;;;;;;;2.10;2.00;;;;;;;16.04;84.63;101034.81;5090382;28;20546;-71
2021/06/09 04:39:40;;;;;;;2.57;2.27;;;;;;;15.79;85.42;101039.34;5090471;28;20218;-71
2021/06/09 04:42:07;;;;;;;2.40;2.20;;;;;;;15.75;86.37;101044.69;5090329;28;20165;-71
2021/06/09 04:44:37;;;;;;;2.47;2.27;;;;;;;15.83;86.64;101047.75;5090371;28;20228;-71
2021/06/09 04:47:03;;;;;;;3.13;2.60;;;;;;;16.03;85.69;101038.69;5088999;28;20241;-71
2021/06/09 04:49:37;;;;;;;2.53;2.40;;;;;;;16.30;84.41;101048.44;5090367;28;20708;-71
2021/06/09 04:52:04;;;;;;;3.07;2.47;;;;;;;16.24;83.81;101050.59;5090407;28;20178;-71
2021/06/09 04:54:30;;;;;;;2.63;2.43;;;;;;;16.26;84.20;101041.97;5090754;28;20307;-71
2021/06/09 04:56:56;;;;;;;2.80;2.60;;;;;;;16.42;83.57;101042.19;5090016;28;20256;-71
2021/06/09 04:59:22;;;;;;;2.43;2.33;;;;;;;16.55;82.95;101038.34;5090100;28;20180;-71
2021/06/09 05:01:48;;;;;;;3.10;2.80;;;;;;;16.70;82.22;101035.00;5090342;28;20174;-71
2021/06/09 05:04:13;;;;;;;2.80;2.57;;;;;;;16.64;81.78;101037.16;5088886;28;20205;-70
2021/06/09 05:06:39;;;;;;;2.43;2.30;;;;;;;16.76;81.50;101028.13;5093345;28;20192;-71
2021/06/09 05:09:05;;;;;;;2.40;2.20;;;;;;;16.87;80.73;101028.50;5094357;28;20200;-71
2021/06/09 05:11:36;;;;;;;2.33;2.13;;;;;;;16.97;81.03;101028.09;5086226;28;20173;-71
2021/06/09 05:14:06;;;;;;;2.80;2.60;;;;;;;17.05;80.00;101023.63;5088745;28;20205;-71
2021/06/09 05:16:34;;;;;;;2.43;2.23;;;;;;;17.13;79.98;101022.72;5088444;28;20519;-71
2021/06/09 05:19:03;;;;;;;3.07;2.87;;;;;;;17.19;79.97;101029.63;5091456;28;20181;-71
2021/06/09 05:21:31;;;;;;;2.87;2.67;;;;;;;17.20;79.62;101025.72;5094023;28;20264;-71
2021/06/09 05:23:58;;;;;;;3.27;2.83;;;;;;;17.12;80.15;101030.22;5084738;28;20166;-71
2021/06/09 05:26:25;;;;;;;4.73;2.60;;;;;;;17.18;78.96;101028.84;5093686;28;20223;-70
2021/06/09 05:28:55;;;;;;;2.73;2.53;;;;;;;17.24;79.01;101030.25;5094051;28;20170;-70
2021/06/09 05:31:24;;;;;;;2.97;2.77;;;;;;;17.35;78.86;101027.03;5094161;28;20462;-71
2021/06/09 05:33:52;;;;;;;2.43;2.23;;;;;;;17.55;79.48;101032.47;5091398;28;20677;-71
2021/06/09 05:36:18;;;;;;;2.53;2.33;;;;;;;17.65;77.49;101035.91;5089971;28;20182;-70
2021/06/09 05:38:44;;;;;;;2.37;2.23;;;;;;;17.66;76.02;101043.09;5081117;28;20178;-71
2021/06/09 05:41:10;;;;;;;2.27;2.10;;;;;;;17.78;76.13;101043.09;5088914;28;20235;-71
2021/06/09 05:43:35;;;;;;;2.50;2.30;;;;;;;17.82;75.13;101038.50;5089048;28;20197;-71
2021/06/09 05:46:09;;;;;;;2.60;2.40;;;;;;;17.71;75.32;101032.63;5085249;28;20224;-71
2021/06/09 05:48:39;;;;;;;2.03;1.93;;;;;;;17.81;75.16;101031.38;5093891;28;20203;-71
2021/06/09 05:51:04;;;;;;;3.40;2.27;;;;;;;17.89;75.13;101035.16;5092598;28;20166;-71
2021/06/09 05:53:31;;;;;;;2.43;2.33;;;;;;;17.96;74.31;101040.94;5089922;28;20177;-71
2021/06/09 05:55:57;;;;;;;2.60;2.40;;;;;;;18.03;75.17;101043.91;5078508;28;20533;-71
2021/06/09 05:58:24;;;;;;;2.67;2.47;;;;;;;18.09;75.04;101034.25;5093802;28;20169;-71
2021/06/09 06:00:54;;;;;;;2.37;2.17;;;;;;;18.16;74.29;101033.63;5090279;28;20174;-71
2021/06/09 06:03:24;;;;;;;2.07;1.97;;;;;;;18.07;73.18;101042.84;5072161;28;20171;-71
2021/06/09 06:06:00;;;;;;;2.20;2.03;;;;;;;18.18;73.74;101032.13;5073438;28;20289;-71
2021/06/09 06:08:26;;;;;;;2.60;2.37;;;;;;;18.24;73.97;101035.47;5088551;28;20177;-71
2021/06/09 06:10:53;;;;;;;2.27;2.17;;;;;;;18.42;73.79;101037.63;5093578;28;20178;-71
2021/06/09 06:13:20;;;;;;;2.70;2.50;;;;;;;18.36;72.40;101041.78;5096225;28;20170;-70
2021/06/09 06:15:46;;;;;;;2.60;2.40;;;;;;;18.34;73.52;101038.56;5093512;28;20504;-71
2021/06/09 06:18:13;;;;;;;2.43;2.33;;;;;;;18.41;73.83;101029.69;5092756;28;20287;-71
2021/06/09 06:20:42;;;;;;;2.77;2.57;;;;;;;18.50;74.00;101040.59;5093211;28;20208;-71
2021/06/09 06:23:08;;;;;;;2.60;2.40;;;;;;;18.40;73.75;101039.13;5093330;28;20166;-71
2021/06/09 06:25:34;;;;;;;2.67;2.47;;;;;;;18.39;74.55;101037.53;5091725;28;20202;-71
2021/06/09 06:27:59;;;;;;;2.60;2.40;;;;;;;18.26;73.37;101038.69;5093289;28;20181;-71
2021/06/09 06:30:25;;;;;;;2.27;2.10;;;;;;;18.22;73.87;101044.09;5089546;28;20166;-73
2021/06/09 06:32:53;;;;;;;2.40;2.30;;;;;;;18.28;74.08;101036.38;5072480;28;20498;-73
2021/06/09 06:35:21;;;;;;;2.70;2.50;;;;;;;18.12;74.31;101039.06;5086278;28;20188;-71
2021/06/09 06:37:49;;;;;;;1.87;1.77;;;;;;;18.14;74.47;101028.47;5087737;28;20269;-70
2021/06/09 06:40:19;;;;;;;2.90;2.70;;;;;;;18.06;74.22;101029.38;5091760;28;20204;-71
2021/06/09 06:42:44;;;;;;;2.40;2.20;;;;;;;18.07;74.01;101036.53;5072906;28;20179;-71
2021/06/09 06:45:10;;;;;;;2.60;2.40;;;;;;;18.08;74.34;101027.06;5072708;28;20713;-71
2021/06/09 06:47:36;;;;;;;2.90;2.77;;;;;;;18.12;72.97;101028.00;5072608;28;20498;-71
2021/06/09 06:50:03;;;;;;;2.43;2.30;;;;;;;18.42;74.55;101026.56;5072709;28;20173;-71
2021/06/09 06:52:32;;;;;;;2.73;2.53;;;;;;;18.76;73.25;101035.47;5072510;28;20269;-71
2021/06/09 06:55:03;;;;;;;2.27;2.17;;;;;;;18.95;72.72;101021.78;5072801;28;20178;-71
2021/06/09 06:57:30;;;;;;;2.57;2.37;;;;;;;19.17;71.74;101036.19;5072416;28;20162;-71
2021/06/09 06:59:58;;;;;;;2.47;2.27;;;;;;;19.32;71.31;101041.75;5072541;28;20174;-71
2021/06/09 07:02:24;;;;;;;2.33;2.20;;;;;;;19.60;71.64;101036.16;5072550;28;20220;-71
2021/06/09 07:04:49;;;;;;;3.00;2.80;;;;;;;19.59;68.63;101030.97;5072415;28;20289;-71
2021/06/09 07:07:16;;;;;;;2.97;2.77;;;;;;;19.58;69.38;101032.16;5072267;28;20741;-71
2021/06/09 07:09:42;;;;;;;2.70;2.50;;;;;;;19.53;69.97;101035.16;5072335;28;20167;-71
2021/06/09 07:12:08;;;;;;;2.80;2.60;;;;;;;19.49;69.36;101035.06;5083043;28;20183;-72
2021/06/09 07:14:35;;;;;;;2.83;2.63;;;;;;;19.51;69.48;101031.91;5092247;28;20197;-71
2021/06/09 07:17:00;;;;;;;2.27;2.07;;;;;;;19.61;70.70;101035.00;5092378;28;20174;-72
2021/06/09 07:19:26;;;;;;;2.57;2.37;;;;;;;19.69;69.70;101040.75;5092541;28;20204;-72
2021/06/09 07:21:51;;;;;;;2.40;2.30;;;;;;;19.72;69.09;101034.47;5092314;28;20537;-71
2021/06/09 07:24:17;;;;;;;2.20;2.10;;;;;;;19.57;68.99;101036.09;5092209;28;20169;-71
2021/06/09 07:26:45;;;;;;;2.57;2.40;;;;;;;19.76;69.92;101049.22;5092180;28;20174;-72
2021/06/09 07:29:11;;;;;;;2.33;2.23;;;;;;;19.69;69.99;101049.06;5091116;28;20205;-72
2021/06/09 07:31:42;;;;;;;2.87;2.67;;;;;;;19.35;69.24;101048.53;5073846;28;20174;-72
2021/06/09 07:34:08;;;;;;;2.60;2.40;;;;;;;19.50;70.95;101055.25;5071880;28;20198;-71
2021/06/09 07:36:51;;;;;;;2.83;2.63;;;;;;;19.39;70.84;101056.97;5071647;28;20641;-72
2021/06/09 07:39:32;;;;;;;2.57;2.37;;;;;;;19.30;70.55;101060.69;5071782;28;20222;-72
2021/06/09 07:42:01;;;;;;;2.13;2.00;;;;;;;19.38;70.28;101058.91;5071594;28;20171;-72
2021/06/09 07:44:32;;;;;;;2.73;2.50;;;;;;;19.51;70.27;101060.44;5077087;28;20686;-71
2021/06/09 07:46:58;;;;;;;2.23;2.10;;;;;;;19.52;69.78;101059.28;5089311;28;20186;-71
2021/06/09 07:49:25;;;;;;;2.53;2.33;;;;;;;19.49;69.04;101059.19;5091789;28;20170;-71
2021/06/09 07:51:51;;;;;;;2.80;2.60;;;;;;;19.83;70.70;101054.94;5091758;28;20174;-71
2021/06/09 07:54:18;;;;;;;2.10;2.00;;;;;;;19.70;69.68;101057.00;5091674;28;20184;-71
2021/06/09 07:56:44;;;;;;;2.17;2.07;;;;;;;19.83;70.09;101058.53;5091496;28;20190;-71
2021/06/09 07:59:13;;;;;;;2.60;2.40;;;;;;;20.05;69.25;101062.59;5090896;28;20165;-71
2021/06/09 08:01:58;;;;;;;2.10;1.97;;;;;;;20.04;69.18;101066.53;5106607;27;20631;-71
2021/06/09 08:04:24;;;;;;;3.00;2.80;;;;;;;19.87;68.95;101053.88;5066198;28;20742;-71
2021/06/09 08:06:49;;;;;;;2.37;2.27;;;;;;;20.06;71.06;101055.88;5067336;28;20228;-71
2021/06/09 08:09:15;;;;;;;2.47;2.27;;;;;;;20.23;69.62;101054.69;5067788;28;20170;-71
2021/06/09 08:11:42;;;;;;;2.53;2.43;;;;;;;20.23;68.39;101045.56;5067651;28;20209;-71
2021/06/09 08:14:08;;;;;;;2.80;2.60;;;;;;;20.29;69.52;101055.22;5066963;28;20206;-71
2021/06/09 08:16:35;;;;;;;2.60;2.40;;;;;;;20.39;69.74;101052.66;5066814;28;20175;-71
2021/06/09 08:19:07;;;;;;;3.00;2.80;;;;;;;20.41;67.57;101053.16;5067115;28;20178;-71
2021/06/09 08:21:34;;;;;;;2.73;2.53;;;;;;;20.62;68.94;101050.03;5067458;28;20206;-71
2021/06/09 08:24:01;;;;;;;3.23;3.03;;;;;;;20.81;67.54;101043.66;5067675;28;20175;-71
2021/06/09 08:26:27;;;;;;;3.70;3.40;;;;;;;20.94;68.28;101039.56;5067278;28;20171;-71
2021/06/09 08:28:54;;;;;;;3.80;3.60;;;;;;;20.90;66.22;101049.00;5067351;28;20182;-71
2021/06/09 08:31:31;;;;;;;3.80;3.50;;;;;;;21.04;66.45;101035.38;5067286;28;20186;-71
2021/06/09 08:33:58;;;;;;;4.10;3.80;;;;;;;21.26;68.12;101037.41;5067477;28;20163;-71
2021/06/09 08:36:24;;;;;;;3.83;3.63;;;;;;;21.22;66.72;101030.97;5067097;28;20180;-71
2021/06/09 08:38:53;;;;;;;4.07;3.77;;;;;;;21.39;66.15;101035.25;5049332;28;20190;-71
2021/06/09 08:41:20;;;;;;;4.43;4.13;;;;;;;;;;5067161;28;20207;-71
2021/06/09 08:43:47;;;;;;;4.50;4.20;;;;;;;21.64;68.21;101038.47;5067180;28;20587;-72
2021/06/09 08:46:13;;;;;;;4.87;4.57;;;;;;;21.73;65.87;101035.44;5066995;28;20164;-71
2021/06/09 08:48:44;;;;;;;4.00;3.80;;;;;;;21.91;66.39;101037.31;5048932;28;20174;-71
2021/06/09 08:51:11;;;;;;;4.57;4.27;;;;;;;21.80;64.37;101036.34;5066835;28;20175;-72
2021/06/09 08:53:41;;;;;;;4.43;4.07;;;;;;;21.94;66.48;101036.56;5066768;28;20172;-71
2021/06/09 08:56:06;;;;;;;4.33;4.03;;;;;;;21.73;63.98;101035.44;5066841;28;20166;-72
2021/06/09 08:58:32;;;;;;;5.23;4.73;;;;;;;21.75;62.89;101030.31;5066619;28;20537;-72
2021/06/09 09:00:58;;;;;;;4.20;3.90;;;;;;;21.90;64.47;101030.16;5048589;28;20309;-71
2021/06/09 09:03:24;;;;;;;4.50;4.20;;;;;;;22.09;66.47;101031.25;5082211;28;20266;-71
2021/06/09 09:05:50;;;;;;;4.13;3.83;;;;;;;22.24;65.76;101027.50;5075931;28;20751;-71
2021/06/09 09:08:15;;;;;;;4.40;4.10;;;;;;;22.33;65.52;101028.03;5068480;28;20192;-72
2021/06/09 09:10:40;;;;;;;5.27;4.87;;;;;;;22.39;64.14;101029.28;5066755;28;20186;-71
2021/06/09 09:13:06;;;;;;;4.57;4.27;;;;;;;22.53;62.05;101037.03;5058792;28;20670;-71
2021/06/09 09:15:32;;;;;;;4.60;4.30;;;;;;;22.53;62.91;101032.25;5059562;28;20179;-71
2021/06/09 09:18:00;;;;;;;5.20;4.87;;;;;;;22.47;62.29;101033.00;5053481;28;20184;-71
2021/06/09 09:20:30;;;;;;;4.00;3.70;;;;;;;22.62;63.94;101042.31;5068469;28;20600;-72
2021/06/09 09:22:58;;;;;;;4.87;4.50;;;;;;;22.73;62.28;101041.28;5035086;28;20190;-72
2021/06/09 09:25:26;;;;;;;5.00;4.70;;;;;;;22.54;62.97;101044.19;5051900;28;20179;-71
2021/06/09 09:27:54;;;;;;;5.10;4.77;;;;;;;22.66;63.89;101040.38;5041797;28;20194;-71
2021/06/09 09:30:21;;;;;;;5.03;4.73;;;;;;;22.37;60.84;101042.00;5044098;28;20266;-71
2021/06/09 09:32:58;;;;;;;4.57;4.27;;;;;;;22.55;64.96;101043.03;5052446;28;20201;-71
2021/06/09 09:35:29;;;;;;;4.50;4.20;;;;;;;22.94;64.35;101045.53;5052808;28;20532;-71
2021/06/09 09:38:13;;;;;;;4.37;4.07;;;;;;;23.09;62.03;101045.28;5052204;28;20167;-71
2021/06/09 09:40:39;;;;;;;5.00;4.70;;;;;;;22.78;61.55;101051.28;5052532;28;20202;-70
2021/06/09 09:43:04;;;;;;;4.97;4.67;;;;;;;22.78;60.72;101045.72;5050563;28;20183;-71
2021/06/09 09:45:33;;;;;;;5.20;4.67;;;;;;;22.70;61.25;101044.00;5062201;28;20653;-71
2021/06/09 09:48:09;;;;;;;4.77;4.43;;;;;;;23.04;60.73;101045.66;5052341;28;20205;-71
2021/06/09 09:50:41;;;;;;;4.60;4.30;;;;;;;23.32;64.16;101049.91;5056312;28;20244;-72
2021/06/09 09:53:22;;;;;;;4.40;4.10;;;;;;;23.57;62.01;101044.56;5055390;28;20221;-71
2021/06/09 09:55:56;;;;;;;4.77;4.47;;;;;;;23.68;59.68;101048.28;5056510;28;20275;-71
2021/06/09 09:58:21;;;;;;;5.27;4.97;;;;;;;23.79;60.81;101042.78;5052248;28;20278;-71
2021/06/09 10:00:46;;;;;;;4.67;4.37;;;;;;;23.58;61.04;101043.41;5052123;28;20296;-71
2021/06/09 10:03:18;;;;;;;5.50;5.10;;;;;;;23.60;59.62;101039.06;5051947;28;20262;-71
2021/06/09 10:05:44;;;;;;;4.87;4.53;;;;;;;23.67;58.69;101033.53;5051913;28;20364;-71
2021/06/09 10:08:10;;;;;;;5.10;4.80;;;;;;;23.67;58.54;101027.94;5051480;28;20186;-71
2021/06/09 10:10:36;;;;;;;4.90;4.60;;;;;;;23.49;59.21;101032.53;5051868;28;20482;-72
2021/06/09 10:13:15;;;;;;;5.30;5.00;;;;;;;23.09;59.51;101022.19;5051963;28;20186;-72
2021/06/09 10:15:48;;;;;;;4.97;4.67;;;;;;;23.20;60.23;101025.09;5051834;28;20223;-71
2021/06/09 10:18:19;;;;;;;4.50;4.20;;;;;;;23.48;60.17;101017.00;5051596;28;20508;-71
2021/06/09 10:20:47;;;;;;;5.13;4.83;;;;;;;23.55;59.74;101019.84;5051788;28;20241;-71
2021/06/09 10:23:33;;;;;;;5.00;4.70;;;;;;;23.43;59.66;101020.13;5050905;28;20170;-71
2021/06/09 10:26:11;;;;;;;4.63;4.33;;;;;;;23.48;60.80;101013.41;5051810;28;20556;-71
2021/06/09 10:28:58;;;;;;;5.23;4.83;;;;;;;23.69;59.95;101017.19;5051418;28;20171;-71
2021/06/09 10:31:32;;;;;;;6.07;4.97;;;;;;;23.91;59.30;101011.78;5051398;28;20182;-71
2021/06/09 10:33:57;;;;;;;5.20;4.90;;;;;;;23.72;58.71;101008.06;5051403;28;20190;-71
2021/06/09 10:36:24;;;;;;;5.50;5.10;;;;;;;23.70;59.20;101010.41;5051166;28;20623;-71
2021/06/09 10:38:50;;;;;;;5.20;4.87;;;;;;;23.82;59.27;101006.53;5050875;28;20167;-71
2021/06/09 10:41:16;;;;;;;5.03;4.63;;;;;;;24.30;60.46;101018.44;5051188;28;20272;-71
2021/06/09 10:43:47;;;;;;;5.13;4.73;;;;;;;24.60;59.21;101006.19;5051170;28;20172;-71
2021/06/09 10:46:17;;;;;;;4.67;4.37;;;;;;;24.80;57.41;101010.25;5050973;28;20462;-71
2021/06/09 10:48:43;;;;;;;5.20;4.90;;;;;;;24.70;56.81;101004.63;5051133;28;20163;-71
2021/06/09 10:51:12;;;;;;;5.20;4.90;;;;;;;24.43;54.80;101012.50;5068512;28;20509;-71
2021/06/09 10:53:37;;;;;;;4.60;4.30;;;;;;;23.98;58.12;101009.81;5071099;28;20695;-71
2021/06/09 10:56:04;;;;;;;5.47;5.07;;;;;;;23.84;57.64;101006.13;5071078;28;20198;-71
2021/06/09 10:58:29;;;;;;;5.07;4.70;;;;;;;23.87;59.53;101000.59;5070847;28;20400;-71
2021/06/09 11:00:56;;;;;;;5.23;4.80;;;;;;;23.96;57.91;101005.81;5086458;28;20210;-71
2021/06/09 11:03:23;;;;;;;4.33;4.13;;;;;;;24.26;57.10;101000.81;5070854;28;20206;-71
2021/06/09 11:05:48;;;;;;;4.77;4.37;;;;;;;24.01;56.91;101005.44;5070962;28;20503;-71
2021/06/09 11:08:17;;;;;;;4.70;4.40;;;;;;;24.05;57.26;101006.28;5070551;28;20271;-71
2021/06/09 11:10:51;;;;;;;5.23;4.83;;;;;;;24.00;58.07;100996.28;5070826;28;20219;-71
2021/06/09 11:13:28;;;;;;;4.70;4.30;;;;;;;24.04;56.91;100991.53;5070715;28;20245;-71
2021/06/09 11:16:11;;;;;;;5.57;5.17;;;;;;;23.90;55.78;100993.44;5070637;28;20523;-71
2021/06/09 11:18:40;;;;;;;5.27;4.83;;;;;;;23.77;55.98;100990.16;5070349;28;20220;-71
2021/06/09 11:21:10;;;;;;;5.03;4.63;;;;;;;23.80;58.02;100991.38;5070557;28;20198;-71
2021/06/09 11:23:39;;;;;;;4.60;4.30;;;;;;;24.21;56.96;100989.22;5070606;28;20181;-71
2021/06/09 11:26:05;;;;;;;4.77;4.47;;;;;;;24.61;55.81;100986.25;5070584;28;20527;-71
2021/06/09 11:28:34;;;;;;;4.33;4.10;;;;;;;24.42;57.73;100980.16;5070347;28;20175;-71
2021/06/09 11:31:03;;;;;;;4.87;4.57;;;;;;;24.70;56.03;100982.25;5086057;28;20182;-71
2021/06/09 11:33:56;;;;;;;5.33;4.93;;;;;;;24.13;56.88;100979.19;5070361;28;20174;-71
2021/06/09 11:36:21;;;;;;;4.10;3.80;;;;;;;24.28;59.22;100983.66;5069942;28;20178;-71